sensor_id;sensor_type;location;lat;lon;timestamp;P1;durP1;ratioP1;P2;durP2;ratioP2
53052;SDS011;38934;52.690;6.184;2022-08-19T00:01:19;6.97;;;5.90;;
53052;SDS011;38934;52.690;6.184;2022-08-19T00:03:45;7.57;;;5.78;;
53052;SDS011;38934;52.690;6.184;2022-08-19T00:06:10;8.95;;;6.47;;
53052;SDS011;38934;52.690;6.184;2022-08-19T00:08:36;9.43;;;6.05;;
53052;SDS011;38934;52.690;6.184;2022-08-19T00:11:02;7.35;;;5.85;;
53052;SDS011;38934;52.690;6.184;2022-08-19T00:13:27;7.90;;;6.15;;
53052;SDS011;38934;52.690;6.184;2022-08-19T00:15:54;9.30;;;5.90;;
53052;SDS011;38934;52.690;6.184;2022-08-19T00:18:20;7.03;;;5.32;;
53052;SDS011;38934;52.690;6.184;2022-08-19T00:20:46;6.90;;;5.90;;
53052;SDS011;38934;52.690;6.184;2022-08-19T00:23:11;8.38;;;6.30;;
53052;SDS011;38934;52.690;6.184;2022-08-19T00:25:37;6.65;;;5.40;;
53052;SDS011;38934;52.690;6.184;2022-08-19T00:28:03;8.85;;;6.07;;
53052;SDS011;38934;52.690;6.184;2022-08-19T00:30:29;8.82;;;6.10;;
53052;SDS011;38934;52.690;6.184;2022-08-19T00:32:55;8.63;;;6.30;;
53052;SDS011;38934;52.690;6.184;2022-08-19T00:35:21;7.25;;;6.25;;
53052;SDS011;38934;52.690;6.184;2022-08-19T00:37:47;7.88;;;6.03;;
53052;SDS011;38934;52.690;6.184;2022-08-19T00:40:14;8.70;;;6.72;;
53052;SDS011;38934;52.690;6.184;2022-08-19T00:42:41;8.27;;;6.90;;
53052;SDS011;38934;52.690;6.184;2022-08-19T00:45:13;9.93;;;6.90;;
53052;SDS011;38934;52.690;6.184;2022-08-19T00:47:42;8.60;;;7.00;;
53052;SDS011;38934;52.690;6.184;2022-08-19T00:50:09;9.18;;;6.82;;
53052;SDS011;38934;52.690;6.184;2022-08-19T00:52:39;8.60;;;6.78;;
53052;SDS011;38934;52.690;6.184;2022-08-19T00:55:10;9.10;;;7.00;;
53052;SDS011;38934;52.690;6.184;2022-08-19T00:57:41;8.98;;;7.30;;
53052;SDS011;38934;52.690;6.184;2022-08-19T01:00:11;8.52;;;6.90;;
53052;SDS011;38934;52.690;6.184;2022-08-19T01:02:41;9.65;;;7.03;;
53052;SDS011;38934;52.690;6.184;2022-08-19T01:05:14;8.93;;;6.95;;
53052;SDS011;38934;52.690;6.184;2022-08-19T01:07:46;11.10;;;6.97;;
53052;SDS011;38934;52.690;6.184;2022-08-19T01:10:14;10.02;;;6.45;;
53052;SDS011;38934;52.690;6.184;2022-08-19T01:12:44;9.50;;;7.38;;
53052;SDS011;38934;52.690;6.184;2022-08-19T01:15:11;10.13;;;7.45;;
53052;SDS011;38934;52.690;6.184;2022-08-19T01:17:39;8.35;;;6.70;;
53052;SDS011;38934;52.690;6.184;2022-08-19T01:20:06;9.32;;;7.35;;
53052;SDS011;38934;52.690;6.184;2022-08-19T01:22:38;9.88;;;7.07;;
53052;SDS011;38934;52.690;6.184;2022-08-19T01:25:11;9.95;;;7.70;;
53052;SDS011;38934;52.690;6.184;2022-08-19T01:27:42;9.95;;;6.85;;
53052;SDS011;38934;52.690;6.184;2022-08-19T01:30:31;7.95;;;6.95;;
53052;SDS011;38934;52.690;6.184;2022-08-19T01:32:59;10.30;;;6.55;;
53052;SDS011;38934;52.690;6.184;2022-08-19T01:35:26;9.25;;;7.20;;
53052;SDS011;38934;52.690;6.184;2022-08-19T01:37:55;10.27;;;7.28;;
53052;SDS011;38934;52.690;6.184;2022-08-19T01:40:24;11.23;;;7.57;;
53052;SDS011;38934;52.690;6.184;2022-08-19T01:42:54;11.18;;;8.65;;
53052;SDS011;38934;52.690;6.184;2022-08-19T01:45:21;10.73;;;7.93;;
53052;SDS011;38934;52.690;6.184;2022-08-19T01:47:48;9.18;;;7.68;;
53052;SDS011;38934;52.690;6.184;2022-08-19T01:50:13;10.20;;;7.90;;
53052;SDS011;38934;52.690;6.184;2022-08-19T01:52:39;10.18;;;7.95;;
53052;SDS011;38934;52.690;6.184;2022-08-19T01:55:08;11.48;;;8.63;;
53052;SDS011;38934;52.690;6.184;2022-08-19T01:57:37;8.65;;;7.22;;
53052;SDS011;38934;52.690;6.184;2022-08-19T02:00:05;10.05;;;8.27;;
53052;SDS011;38934;52.690;6.184;2022-08-19T02:02:33;12.27;;;8.20;;
53052;SDS011;38934;52.690;6.184;2022-08-19T02:04:58;10.80;;;8.30;;
53052;SDS011;38934;52.690;6.184;2022-08-19T02:07:24;14.00;;;8.82;;
53052;SDS011;38934;52.690;6.184;2022-08-19T02:09:50;12.68;;;8.63;;
53052;SDS011;38934;52.690;6.184;2022-08-19T02:12:15;12.93;;;8.55;;
53052;SDS011;38934;52.690;6.184;2022-08-19T02:14:41;9.68;;;8.07;;
53052;SDS011;38934;52.690;6.184;2022-08-19T02:17:07;12.85;;;9.40;;
53052;SDS011;38934;52.690;6.184;2022-08-19T02:19:33;10.68;;;7.97;;
53052;SDS011;38934;52.690;6.184;2022-08-19T02:21:59;11.52;;;8.23;;
53052;SDS011;38934;52.690;6.184;2022-08-19T02:24:26;11.02;;;8.30;;
53052;SDS011;38934;52.690;6.184;2022-08-19T02:26:52;13.05;;;9.15;;
53052;SDS011;38934;52.690;6.184;2022-08-19T02:29:18;12.63;;;9.20;;
53052;SDS011;38934;52.690;6.184;2022-08-19T02:31:44;13.05;;;9.82;;
53052;SDS011;38934;52.690;6.184;2022-08-19T02:34:10;11.77;;;9.43;;
53052;SDS011;38934;52.690;6.184;2022-08-19T02:36:35;13.02;;;9.43;;
53052;SDS011;38934;52.690;6.184;2022-08-19T02:39:01;12.40;;;9.43;;
53052;SDS011;38934;52.690;6.184;2022-08-19T02:41:29;12.02;;;8.55;;
53052;SDS011;38934;52.690;6.184;2022-08-19T02:43:58;15.52;;;9.75;;
53052;SDS011;38934;52.690;6.184;2022-08-19T02:46:26;12.45;;;9.43;;
53052;SDS011;38934;52.690;6.184;2022-08-19T02:48:59;11.48;;;8.60;;
53052;SDS011;38934;52.690;6.184;2022-08-19T02:51:30;10.93;;;8.45;;
53052;SDS011;38934;52.690;6.184;2022-08-19T02:54:03;11.82;;;9.00;;
53052;SDS011;38934;52.690;6.184;2022-08-19T02:56:30;11.68;;;9.60;;
53052;SDS011;38934;52.690;6.184;2022-08-19T02:58:56;12.68;;;8.93;;
53052;SDS011;38934;52.690;6.184;2022-08-19T03:03:49;13.93;;;9.70;;
53052;SDS011;38934;52.690;6.184;2022-08-19T03:06:15;12.60;;;9.13;;
53052;SDS011;38934;52.690;6.184;2022-08-19T03:08:42;11.93;;;9.50;;
53052;SDS011;38934;52.690;6.184;2022-08-19T03:11:16;13.20;;;9.50;;
53052;SDS011;38934;52.690;6.184;2022-08-19T03:13:47;12.32;;;9.40;;
53052;SDS011;38934;52.690;6.184;2022-08-19T03:16:16;13.75;;;9.68;;
53052;SDS011;38934;52.690;6.184;2022-08-19T03:18:43;13.45;;;9.68;;
53052;SDS011;38934;52.690;6.184;2022-08-19T03:21:09;12.05;;;8.65;;
53052;SDS011;38934;52.690;6.184;2022-08-19T03:23:39;11.48;;;8.82;;
53052;SDS011;38934;52.690;6.184;2022-08-19T03:26:05;12.25;;;8.65;;
53052;SDS011;38934;52.690;6.184;2022-08-19T03:28:33;11.95;;;9.10;;
53052;SDS011;38934;52.690;6.184;2022-08-19T03:31:04;13.00;;;9.70;;
53052;SDS011;38934;52.690;6.184;2022-08-19T03:33:32;12.73;;;10.30;;
53052;SDS011;38934;52.690;6.184;2022-08-19T03:35:59;11.80;;;9.00;;
53052;SDS011;38934;52.690;6.184;2022-08-19T03:38:26;12.63;;;9.60;;
53052;SDS011;38934;52.690;6.184;2022-08-19T03:40:52;12.00;;;9.45;;
53052;SDS011;38934;52.690;6.184;2022-08-19T03:43:17;12.63;;;9.30;;
53052;SDS011;38934;52.690;6.184;2022-08-19T03:45:44;14.60;;;9.60;;
53052;SDS011;38934;52.690;6.184;2022-08-19T03:48:09;11.73;;;9.38;;
53052;SDS011;38934;52.690;6.184;2022-08-19T03:50:38;11.38;;;8.60;;
53052;SDS011;38934;52.690;6.184;2022-08-19T03:53:05;11.75;;;8.90;;
53052;SDS011;38934;52.690;6.184;2022-08-19T03:55:32;11.85;;;9.02;;
53052;SDS011;38934;52.690;6.184;2022-08-19T03:57:57;11.95;;;9.23;;
53052;SDS011;38934;52.690;6.184;2022-08-19T04:00:23;13.45;;;9.43;;
53052;SDS011;38934;52.690;6.184;2022-08-19T04:02:49;12.82;;;9.77;;
53052;SDS011;38934;52.690;6.184;2022-08-19T04:05:14;12.13;;;9.15;;
53052;SDS011;38934;52.690;6.184;2022-08-19T04:07:40;11.68;;;9.25;;
53052;SDS011;38934;52.690;6.184;2022-08-19T04:10:05;13.70;;;9.38;;
53052;SDS011;38934;52.690;6.184;2022-08-19T04:12:31;11.07;;;8.82;;
53052;SDS011;38934;52.690;6.184;2022-08-19T04:14:57;13.77;;;9.90;;
53052;SDS011;38934;52.690;6.184;2022-08-19T04:17:23;10.77;;;8.32;;
53052;SDS011;38934;52.690;6.184;2022-08-19T04:19:49;10.98;;;8.90;;
53052;SDS011;38934;52.690;6.184;2022-08-19T04:22:15;13.10;;;8.50;;
53052;SDS011;38934;52.690;6.184;2022-08-19T04:24:40;13.07;;;9.05;;
53052;SDS011;38934;52.690;6.184;2022-08-19T04:27:06;12.60;;;9.18;;
53052;SDS011;38934;52.690;6.184;2022-08-19T04:29:31;11.77;;;8.73;;
53052;SDS011;38934;52.690;6.184;2022-08-19T04:31:58;10.50;;;7.97;;
53052;SDS011;38934;52.690;6.184;2022-08-19T04:34:25;13.52;;;9.18;;
53052;SDS011;38934;52.690;6.184;2022-08-19T04:36:53;12.73;;;9.13;;
53052;SDS011;38934;52.690;6.184;2022-08-19T04:39:21;12.00;;;8.77;;
53052;SDS011;38934;52.690;6.184;2022-08-19T04:42:08;13.07;;;9.25;;
53052;SDS011;38934;52.690;6.184;2022-08-19T04:44:53;11.80;;;8.45;;
53052;SDS011;38934;52.690;6.184;2022-08-19T04:47:19;13.95;;;9.75;;
53052;SDS011;38934;52.690;6.184;2022-08-19T04:49:44;12.60;;;9.80;;
53052;SDS011;38934;52.690;6.184;2022-08-19T04:52:10;12.38;;;9.55;;
53052;SDS011;38934;52.690;6.184;2022-08-19T04:54:35;12.57;;;8.77;;
53052;SDS011;38934;52.690;6.184;2022-08-19T04:57:01;15.05;;;10.55;;
53052;SDS011;38934;52.690;6.184;2022-08-19T04:59:27;12.45;;;9.73;;
53052;SDS011;38934;52.690;6.184;2022-08-19T05:01:52;15.50;;;10.48;;
53052;SDS011;38934;52.690;6.184;2022-08-19T05:04:19;11.85;;;9.15;;
53052;SDS011;38934;52.690;6.184;2022-08-19T05:06:46;13.05;;;9.82;;
53052;SDS011;38934;52.690;6.184;2022-08-19T05:09:14;13.75;;;9.45;;
53052;SDS011;38934;52.690;6.184;2022-08-19T05:11:41;12.32;;;9.00;;
53052;SDS011;38934;52.690;6.184;2022-08-19T05:14:07;11.88;;;8.95;;
53052;SDS011;38934;52.690;6.184;2022-08-19T05:16:34;13.00;;;9.80;;
53052;SDS011;38934;52.690;6.184;2022-08-19T05:18:59;12.98;;;9.35;;
53052;SDS011;38934;52.690;6.184;2022-08-19T05:21:44;12.55;;;9.13;;
53052;SDS011;38934;52.690;6.184;2022-08-19T05:24:28;12.70;;;9.15;;
53052;SDS011;38934;52.690;6.184;2022-08-19T05:26:55;12.63;;;9.07;;
53052;SDS011;38934;52.690;6.184;2022-08-19T05:29:25;10.95;;;8.32;;
53052;SDS011;38934;52.690;6.184;2022-08-19T05:31:52;11.80;;;9.57;;
53052;SDS011;38934;52.690;6.184;2022-08-19T05:34:19;14.25;;;10.43;;
53052;SDS011;38934;52.690;6.184;2022-08-19T05:36:47;14.27;;;10.05;;
53052;SDS011;38934;52.690;6.184;2022-08-19T05:39:18;12.88;;;10.00;;
53052;SDS011;38934;52.690;6.184;2022-08-19T05:41:49;15.32;;;10.30;;
53052;SDS011;38934;52.690;6.184;2022-08-19T05:44:18;13.57;;;8.48;;
53052;SDS011;38934;52.690;6.184;2022-08-19T05:46:45;13.02;;;9.77;;
53052;SDS011;38934;52.690;6.184;2022-08-19T05:49:13;13.25;;;9.85;;
53052;SDS011;38934;52.690;6.184;2022-08-19T05:51:40;12.63;;;9.55;;
53052;SDS011;38934;52.690;6.184;2022-08-19T05:54:07;15.70;;;11.73;;
53052;SDS011;38934;52.690;6.184;2022-08-19T05:56:34;14.52;;;10.77;;
53052;SDS011;38934;52.690;6.184;2022-08-19T05:59:03;15.60;;;11.45;;
53052;SDS011;38934;52.690;6.184;2022-08-19T06:01:33;16.48;;;12.18;;
53052;SDS011;38934;52.690;6.184;2022-08-19T06:04:00;14.90;;;11.32;;
53052;SDS011;38934;52.690;6.184;2022-08-19T06:06:26;18.05;;;12.65;;
53052;SDS011;38934;52.690;6.184;2022-08-19T06:08:51;19.75;;;12.80;;
53052;SDS011;38934;52.690;6.184;2022-08-19T06:11:25;19.88;;;13.60;;
53052;SDS011;38934;52.690;6.184;2022-08-19T06:14:03;17.77;;;12.50;;
53052;SDS011;38934;52.690;6.184;2022-08-19T06:16:34;17.67;;;13.02;;
53052;SDS011;38934;52.690;6.184;2022-08-19T06:19:04;21.33;;;14.80;;
53052;SDS011;38934;52.690;6.184;2022-08-19T06:21:32;15.98;;;12.40;;
53052;SDS011;38934;52.690;6.184;2022-08-19T06:23:58;18.73;;;13.35;;
53052;SDS011;38934;52.690;6.184;2022-08-19T06:26:24;15.63;;;12.00;;
53052;SDS011;38934;52.690;6.184;2022-08-19T06:28:51;16.30;;;12.13;;
53052;SDS011;38934;52.690;6.184;2022-08-19T06:31:19;17.15;;;12.73;;
53052;SDS011;38934;52.690;6.184;2022-08-19T06:33:49;19.80;;;14.25;;
53052;SDS011;38934;52.690;6.184;2022-08-19T06:38:51;15.63;;;12.50;;
53052;SDS011;38934;52.690;6.184;2022-08-19T06:41:18;18.65;;;14.05;;
53052;SDS011;38934;52.690;6.184;2022-08-19T06:43:43;16.48;;;11.95;;
53052;SDS011;38934;52.690;6.184;2022-08-19T06:46:10;18.77;;;13.30;;
53052;SDS011;38934;52.690;6.184;2022-08-19T06:48:37;19.35;;;13.43;;
53052;SDS011;38934;52.690;6.184;2022-08-19T06:51:03;16.23;;;12.77;;
53052;SDS011;38934;52.690;6.184;2022-08-19T06:53:30;17.85;;;12.48;;
53052;SDS011;38934;52.690;6.184;2022-08-19T06:55:56;18.13;;;13.77;;
53052;SDS011;38934;52.690;6.184;2022-08-19T06:58:25;17.73;;;13.95;;
53052;SDS011;38934;52.690;6.184;2022-08-19T07:00:51;19.75;;;14.80;;
53052;SDS011;38934;52.690;6.184;2022-08-19T07:03:17;15.38;;;11.50;;
53052;SDS011;38934;52.690;6.184;2022-08-19T07:05:42;21.83;;;13.80;;
53052;SDS011;38934;52.690;6.184;2022-08-19T07:08:08;17.73;;;13.07;;
53052;SDS011;38934;52.690;6.184;2022-08-19T07:10:34;18.15;;;13.32;;
53052;SDS011;38934;52.690;6.184;2022-08-19T07:13:01;17.58;;;13.68;;
53052;SDS011;38934;52.690;6.184;2022-08-19T07:15:28;19.58;;;14.38;;
53052;SDS011;38934;52.690;6.184;2022-08-19T07:17:54;18.60;;;14.20;;
53052;SDS011;38934;52.690;6.184;2022-08-19T07:20:20;17.90;;;14.13;;
53052;SDS011;38934;52.690;6.184;2022-08-19T07:22:45;20.67;;;14.57;;
53052;SDS011;38934;52.690;6.184;2022-08-19T07:25:12;17.27;;;13.35;;
53052;SDS011;38934;52.690;6.184;2022-08-19T07:27:38;13.55;;;11.32;;
53052;SDS011;38934;52.690;6.184;2022-08-19T07:30:04;16.52;;;13.13;;
53052;SDS011;38934;52.690;6.184;2022-08-19T07:32:30;17.77;;;13.20;;
53052;SDS011;38934;52.690;6.184;2022-08-19T07:34:56;18.83;;;13.70;;
53052;SDS011;38934;52.690;6.184;2022-08-19T07:37:21;19.90;;;15.05;;
53052;SDS011;38934;52.690;6.184;2022-08-19T07:39:48;16.17;;;11.82;;
53052;SDS011;38934;52.690;6.184;2022-08-19T07:42:13;18.58;;;14.38;;
53052;SDS011;38934;52.690;6.184;2022-08-19T07:44:40;17.83;;;13.05;;
53052;SDS011;38934;52.690;6.184;2022-08-19T07:47:06;16.27;;;13.50;;
53052;SDS011;38934;52.690;6.184;2022-08-19T07:49:32;18.77;;;13.60;;
53052;SDS011;38934;52.690;6.184;2022-08-19T07:52:00;18.33;;;14.00;;
53052;SDS011;38934;52.690;6.184;2022-08-19T07:54:29;18.75;;;12.82;;
53052;SDS011;38934;52.690;6.184;2022-08-19T07:56:56;22.15;;;14.68;;
53052;SDS011;38934;52.690;6.184;2022-08-19T07:59:22;21.83;;;15.75;;
53052;SDS011;38934;52.690;6.184;2022-08-19T08:01:48;20.90;;;16.45;;
53052;SDS011;38934;52.690;6.184;2022-08-19T08:04:15;22.02;;;16.20;;
53052;SDS011;38934;52.690;6.184;2022-08-19T08:07:00;22.55;;;17.50;;
53052;SDS011;38934;52.690;6.184;2022-08-19T08:09:44;19.67;;;15.15;;
53052;SDS011;38934;52.690;6.184;2022-08-19T08:12:12;21.05;;;16.02;;
53052;SDS011;38934;52.690;6.184;2022-08-19T08:14:43;16.92;;;14.23;;
53052;SDS011;38934;52.690;6.184;2022-08-19T08:17:15;20.88;;;16.33;;
53052;SDS011;38934;52.690;6.184;2022-08-19T08:19:43;18.63;;;14.48;;
53052;SDS011;38934;52.690;6.184;2022-08-19T08:22:09;18.70;;;14.50;;
53052;SDS011;38934;52.690;6.184;2022-08-19T08:27:35;24.02;;;17.05;;
53052;SDS011;38934;52.690;6.184;2022-08-19T08:30:04;19.48;;;14.45;;
53052;SDS011;38934;52.690;6.184;2022-08-19T08:32:38;18.88;;;13.77;;
53052;SDS011;38934;52.690;6.184;2022-08-19T08:35:05;17.83;;;13.50;;
53052;SDS011;38934;52.690;6.184;2022-08-19T08:37:32;17.17;;;14.07;;
53052;SDS011;38934;52.690;6.184;2022-08-19T08:39:58;17.95;;;13.35;;
53052;SDS011;38934;52.690;6.184;2022-08-19T08:42:25;17.40;;;13.68;;
53052;SDS011;38934;52.690;6.184;2022-08-19T08:47:24;15.32;;;12.40;;
53052;SDS011;38934;52.690;6.184;2022-08-19T08:49:56;16.00;;;12.65;;
53052;SDS011;38934;52.690;6.184;2022-08-19T08:52:34;16.92;;;12.20;;
53052;SDS011;38934;52.690;6.184;2022-08-19T08:55:08;15.40;;;12.63;;
53052;SDS011;38934;52.690;6.184;2022-08-19T09:02:51;16.33;;;12.55;;
53052;SDS011;38934;52.690;6.184;2022-08-19T09:05:19;15.00;;;11.40;;
53052;SDS011;38934;52.690;6.184;2022-08-19T09:10:46;14.77;;;11.55;;
53052;SDS011;38934;52.690;6.184;2022-08-19T09:16:11;14.50;;;11.20;;
53052;SDS011;38934;52.690;6.184;2022-08-19T09:18:48;14.60;;;12.00;;
53052;SDS011;38934;52.690;6.184;2022-08-19T09:21:18;15.32;;;11.88;;
53052;SDS011;38934;52.690;6.184;2022-08-19T09:23:45;15.52;;;11.70;;
53052;SDS011;38934;52.690;6.184;2022-08-19T09:26:12;14.88;;;11.07;;
53052;SDS011;38934;52.690;6.184;2022-08-19T09:28:40;12.82;;;10.35;;
53052;SDS011;38934;52.690;6.184;2022-08-19T09:31:10;14.70;;;11.02;;
53052;SDS011;38934;52.690;6.184;2022-08-19T09:33:40;12.70;;;9.25;;
53052;SDS011;38934;52.690;6.184;2022-08-19T09:36:09;14.77;;;11.32;;
53052;SDS011;38934;52.690;6.184;2022-08-19T09:38:38;13.48;;;10.57;;
53052;SDS011;38934;52.690;6.184;2022-08-19T09:41:09;14.52;;;10.32;;
53052;SDS011;38934;52.690;6.184;2022-08-19T09:43:38;14.10;;;10.00;;
53052;SDS011;38934;52.690;6.184;2022-08-19T09:46:06;13.80;;;10.77;;
53052;SDS011;38934;52.690;6.184;2022-08-19T09:48:34;21.02;;;11.57;;
53052;SDS011;38934;52.690;6.184;2022-08-19T09:51:02;12.43;;;9.57;;
53052;SDS011;38934;52.690;6.184;2022-08-19T09:53:33;12.70;;;10.05;;
53052;SDS011;38934;52.690;6.184;2022-08-19T09:55:59;17.13;;;11.65;;
53052;SDS011;38934;52.690;6.184;2022-08-19T09:58:26;15.40;;;11.95;;
53052;SDS011;38934;52.690;6.184;2022-08-19T10:00:56;12.57;;;11.27;;
53052;SDS011;38934;52.690;6.184;2022-08-19T10:03:23;14.80;;;11.45;;
53052;SDS011;38934;52.690;6.184;2022-08-19T10:05:49;15.57;;;13.25;;
53052;SDS011;38934;52.690;6.184;2022-08-19T10:08:16;15.25;;;12.90;;
53052;SDS011;38934;52.690;6.184;2022-08-19T10:10:47;15.75;;;13.10;;
53052;SDS011;38934;52.690;6.184;2022-08-19T10:13:15;15.85;;;13.63;;
53052;SDS011;38934;52.690;6.184;2022-08-19T10:15:42;14.77;;;13.23;;
53052;SDS011;38934;52.690;6.184;2022-08-19T10:18:08;14.38;;;12.30;;
53052;SDS011;38934;52.690;6.184;2022-08-19T10:20:33;14.63;;;11.18;;
53052;SDS011;38934;52.690;6.184;2022-08-19T10:23:01;15.70;;;13.77;;
53052;SDS011;38934;52.690;6.184;2022-08-19T10:25:27;16.50;;;13.75;;
53052;SDS011;38934;52.690;6.184;2022-08-19T10:27:56;14.77;;;11.50;;
53052;SDS011;38934;52.690;6.184;2022-08-19T10:30:22;13.45;;;10.95;;
53052;SDS011;38934;52.690;6.184;2022-08-19T10:32:47;15.07;;;12.73;;
53052;SDS011;38934;52.690;6.184;2022-08-19T10:35:13;13.75;;;11.10;;
53052;SDS011;38934;52.690;6.184;2022-08-19T10:37:39;13.75;;;10.98;;
53052;SDS011;38934;52.690;6.184;2022-08-19T10:40:06;14.23;;;12.20;;
53052;SDS011;38934;52.690;6.184;2022-08-19T10:42:33;14.15;;;10.45;;
53052;SDS011;38934;52.690;6.184;2022-08-19T10:45:00;13.23;;;10.07;;
53052;SDS011;38934;52.690;6.184;2022-08-19T10:47:25;15.88;;;10.55;;
53052;SDS011;38934;52.690;6.184;2022-08-19T10:49:52;16.38;;;12.27;;
53052;SDS011;38934;52.690;6.184;2022-08-19T10:52:38;12.43;;;11.10;;
53052;SDS011;38934;52.690;6.184;2022-08-19T10:55:10;14.75;;;11.18;;
53052;SDS011;38934;52.690;6.184;2022-08-19T10:57:54;12.98;;;10.63;;
53052;SDS011;38934;52.690;6.184;2022-08-19T11:00:20;16.30;;;11.40;;
53052;SDS011;38934;52.690;6.184;2022-08-19T11:02:47;12.98;;;10.57;;
53052;SDS011;38934;52.690;6.184;2022-08-19T11:05:14;13.45;;;11.50;;
53052;SDS011;38934;52.690;6.184;2022-08-19T11:07:40;16.13;;;12.20;;
53052;SDS011;38934;52.690;6.184;2022-08-19T11:10:07;16.73;;;13.68;;
53052;SDS011;38934;52.690;6.184;2022-08-19T11:12:36;16.60;;;12.90;;
53052;SDS011;38934;52.690;6.184;2022-08-19T11:15:04;15.80;;;12.55;;
53052;SDS011;38934;52.690;6.184;2022-08-19T11:17:33;15.40;;;12.75;;
53052;SDS011;38934;52.690;6.184;2022-08-19T11:19:58;12.63;;;11.02;;
53052;SDS011;38934;52.690;6.184;2022-08-19T11:22:27;12.80;;;10.40;;
53052;SDS011;38934;52.690;6.184;2022-08-19T11:24:53;12.95;;;11.02;;
53052;SDS011;38934;52.690;6.184;2022-08-19T11:27:20;16.10;;;12.05;;
53052;SDS011;38934;52.690;6.184;2022-08-19T11:29:46;14.35;;;10.93;;
53052;SDS011;38934;52.690;6.184;2022-08-19T11:32:12;14.77;;;10.93;;
53052;SDS011;38934;52.690;6.184;2022-08-19T11:34:38;14.63;;;11.50;;
53052;SDS011;38934;52.690;6.184;2022-08-19T11:37:05;13.18;;;10.90;;
53052;SDS011;38934;52.690;6.184;2022-08-19T11:39:31;17.52;;;12.50;;
53052;SDS011;38934;52.690;6.184;2022-08-19T11:41:58;13.63;;;11.05;;
53052;SDS011;38934;52.690;6.184;2022-08-19T11:44:25;13.93;;;10.95;;
53052;SDS011;38934;52.690;6.184;2022-08-19T11:46:50;13.82;;;11.07;;
53052;SDS011;38934;52.690;6.184;2022-08-19T11:49:18;12.98;;;11.38;;
53052;SDS011;38934;52.690;6.184;2022-08-19T11:51:45;11.88;;;10.30;;
53052;SDS011;38934;52.690;6.184;2022-08-19T11:54:11;13.23;;;10.00;;
53052;SDS011;38934;52.690;6.184;2022-08-19T11:56:39;16.08;;;10.50;;
53052;SDS011;38934;52.690;6.184;2022-08-19T11:59:05;15.80;;;11.50;;
53052;SDS011;38934;52.690;6.184;2022-08-19T12:01:31;15.77;;;10.25;;
53052;SDS011;38934;52.690;6.184;2022-08-19T12:03:56;13.90;;;9.95;;
53052;SDS011;38934;52.690;6.184;2022-08-19T12:06:24;12.40;;;9.60;;
53052;SDS011;38934;52.690;6.184;2022-08-19T12:08:55;13.33;;;9.70;;
53052;SDS011;38934;52.690;6.184;2022-08-19T12:11:22;12.88;;;9.00;;
53052;SDS011;38934;52.690;6.184;2022-08-19T12:13:48;12.38;;;9.43;;
53052;SDS011;38934;52.690;6.184;2022-08-19T12:16:16;12.40;;;8.85;;
53052;SDS011;38934;52.690;6.184;2022-08-19T12:18:44;10.18;;;7.63;;
53052;SDS011;38934;52.690;6.184;2022-08-19T12:21:13;13.75;;;9.45;;
53052;SDS011;38934;52.690;6.184;2022-08-19T12:23:41;16.15;;;11.13;;
53052;SDS011;38934;52.690;6.184;2022-08-19T12:26:09;10.50;;;8.13;;
53052;SDS011;38934;52.690;6.184;2022-08-19T12:28:35;10.98;;;8.70;;
53052;SDS011;38934;52.690;6.184;2022-08-19T12:31:01;11.05;;;8.43;;
53052;SDS011;38934;52.690;6.184;2022-08-19T12:33:26;11.35;;;9.07;;
53052;SDS011;38934;52.690;6.184;2022-08-19T12:35:52;13.68;;;9.65;;
53052;SDS011;38934;52.690;6.184;2022-08-19T12:38:18;14.00;;;9.30;;
53052;SDS011;38934;52.690;6.184;2022-08-19T12:40:47;11.73;;;8.68;;
53052;SDS011;38934;52.690;6.184;2022-08-19T12:43:14;10.73;;;7.88;;
53052;SDS011;38934;52.690;6.184;2022-08-19T12:45:44;10.18;;;8.68;;
53052;SDS011;38934;52.690;6.184;2022-08-19T12:48:11;10.43;;;7.97;;
53052;SDS011;38934;52.690;6.184;2022-08-19T12:50:39;11.15;;;7.85;;
53052;SDS011;38934;52.690;6.184;2022-08-19T12:53:05;10.75;;;7.80;;
53052;SDS011;38934;52.690;6.184;2022-08-19T12:55:31;12.73;;;8.80;;
53052;SDS011;38934;52.690;6.184;2022-08-19T12:57:57;12.50;;;8.52;;
53052;SDS011;38934;52.690;6.184;2022-08-19T13:00:22;11.48;;;8.25;;
53052;SDS011;38934;52.690;6.184;2022-08-19T13:02:51;12.85;;;9.25;;
53052;SDS011;38934;52.690;6.184;2022-08-19T13:05:18;11.32;;;9.63;;
53052;SDS011;38934;52.690;6.184;2022-08-19T13:07:47;11.38;;;8.98;;
53052;SDS011;38934;52.690;6.184;2022-08-19T13:10:15;11.88;;;8.43;;
53052;SDS011;38934;52.690;6.184;2022-08-19T13:12:43;10.68;;;8.73;;
53052;SDS011;38934;52.690;6.184;2022-08-19T13:15:11;15.23;;;10.85;;
53052;SDS011;38934;52.690;6.184;2022-08-19T13:17:37;11.75;;;9.23;;
53052;SDS011;38934;52.690;6.184;2022-08-19T13:20:04;12.60;;;9.90;;
53052;SDS011;38934;52.690;6.184;2022-08-19T13:22:32;15.02;;;8.90;;
53052;SDS011;38934;52.690;6.184;2022-08-19T13:25:00;12.38;;;9.13;;
53052;SDS011;38934;52.690;6.184;2022-08-19T13:27:26;13.30;;;10.65;;
53052;SDS011;38934;52.690;6.184;2022-08-19T13:29:52;11.73;;;9.02;;
53052;SDS011;38934;52.690;6.184;2022-08-19T13:32:36;12.80;;;10.60;;
53052;SDS011;38934;52.690;6.184;2022-08-19T13:35:20;14.65;;;10.95;;
53052;SDS011;38934;52.690;6.184;2022-08-19T13:37:46;14.05;;;11.68;;
53052;SDS011;38934;52.690;6.184;2022-08-19T13:40:19;15.95;;;11.82;;
53052;SDS011;38934;52.690;6.184;2022-08-19T13:42:49;17.08;;;10.10;;
53052;SDS011;38934;52.690;6.184;2022-08-19T13:45:17;11.38;;;9.60;;
53052;SDS011;38934;52.690;6.184;2022-08-19T13:47:45;14.43;;;10.27;;
53052;SDS011;38934;52.690;6.184;2022-08-19T13:50:12;11.25;;;8.63;;
53052;SDS011;38934;52.690;6.184;2022-08-19T13:52:41;11.18;;;8.35;;
53052;SDS011;38934;52.690;6.184;2022-08-19T13:55:07;12.10;;;9.05;;
53052;SDS011;38934;52.690;6.184;2022-08-19T13:57:34;10.30;;;7.97;;
53052;SDS011;38934;52.690;6.184;2022-08-19T14:00:01;18.13;;;9.82;;
53052;SDS011;38934;52.690;6.184;2022-08-19T14:02:29;11.57;;;8.93;;
53052;SDS011;38934;52.690;6.184;2022-08-19T14:04:54;12.07;;;8.95;;
53052;SDS011;38934;52.690;6.184;2022-08-19T14:07:20;10.50;;;7.05;;
53052;SDS011;38934;52.690;6.184;2022-08-19T14:09:48;10.75;;;7.57;;
53052;SDS011;38934;52.690;6.184;2022-08-19T14:12:17;8.73;;;7.57;;
53052;SDS011;38934;52.690;6.184;2022-08-19T14:14:44;12.65;;;7.85;;
53052;SDS011;38934;52.690;6.184;2022-08-19T14:17:10;9.75;;;7.53;;
53052;SDS011;38934;52.690;6.184;2022-08-19T14:19:35;10.48;;;8.07;;
53052;SDS011;38934;52.690;6.184;2022-08-19T14:22:01;10.00;;;8.27;;
53052;SDS011;38934;52.690;6.184;2022-08-19T14:24:27;13.05;;;9.15;;
53052;SDS011;38934;52.690;6.184;2022-08-19T14:26:52;12.73;;;8.15;;
53052;SDS011;38934;52.690;6.184;2022-08-19T14:29:18;12.50;;;9.20;;
53052;SDS011;38934;52.690;6.184;2022-08-19T14:31:44;12.00;;;8.18;;
53052;SDS011;38934;52.690;6.184;2022-08-19T14:34:09;12.63;;;8.45;;
53052;SDS011;38934;52.690;6.184;2022-08-19T14:36:36;13.63;;;9.93;;
53052;SDS011;38934;52.690;6.184;2022-08-19T14:39:02;11.30;;;8.45;;
53052;SDS011;38934;52.690;6.184;2022-08-19T14:41:28;13.32;;;8.35;;
53052;SDS011;38934;52.690;6.184;2022-08-19T14:43:55;11.50;;;7.95;;
53052;SDS011;38934;52.690;6.184;2022-08-19T14:46:23;10.32;;;7.38;;
53052;SDS011;38934;52.690;6.184;2022-08-19T14:48:50;9.13;;;7.30;;
53052;SDS011;38934;52.690;6.184;2022-08-19T14:51:17;11.88;;;7.97;;
53052;SDS011;38934;52.690;6.184;2022-08-19T14:53:44;10.48;;;8.02;;
53052;SDS011;38934;52.690;6.184;2022-08-19T14:56:14;11.27;;;7.35;;